createdAt,value
2022-11-24T00:01:06.241Z,9.33
2022-11-24T00:03:33.205Z,9.27
2022-11-24T00:06:05.794Z,9.27
2022-11-24T00:08:32.712Z,9.28
2022-11-24T00:11:11.818Z,9.34
2022-11-24T00:13:40.099Z,9.35
2022-11-24T00:16:15.698Z,9.27
2022-11-24T00:18:44.933Z,9.22
2022-11-24T00:21:12.522Z,9.30
2022-11-24T00:23:40.257Z,9.32
2022-11-24T00:26:13.627Z,9.30
2022-11-24T00:28:42.674Z,9.32
2022-11-24T00:31:21.303Z,9.32
2022-11-24T00:33:53.766Z,9.35
2022-11-24T00:36:26.579Z,9.26
2022-11-24T00:39:01.201Z,9.34
2022-11-24T00:41:32.069Z,9.37
2022-11-24T00:44:00.283Z,9.39
2022-11-24T00:46:28.852Z,9.27
2022-11-24T00:48:56.299Z,9.33
2022-11-24T00:51:26.216Z,9.39
2022-11-24T00:53:53.340Z,9.47
2022-11-24T00:56:20.435Z,9.50
2022-11-24T00:58:46.975Z,9.58
2022-11-24T01:03:45.203Z,9.57
2022-11-24T01:06:14.548Z,9.59
2022-11-24T01:08:41.974Z,9.60
2022-11-24T01:11:08.579Z,9.54
2022-11-24T01:13:37.044Z,9.60
2022-11-24T01:16:06.069Z,9.54
2022-11-24T01:18:33.891Z,9.61
2022-11-24T01:21:09.843Z,9.62
2022-11-24T01:23:39.256Z,9.63
2022-11-24T01:26:10.674Z,9.62
2022-11-24T01:28:44.846Z,9.65
2022-11-24T01:31:15.320Z,9.69
2022-11-24T01:33:42.052Z,9.65
2022-11-24T01:36:08.733Z,9.65
2022-11-24T01:38:35.391Z,9.60
2022-11-24T01:41:03.350Z,9.58
2022-11-24T01:43:32.258Z,9.65
2022-11-24T01:46:14.606Z,9.64
2022-11-24T01:48:46.948Z,9.66
2022-11-24T01:51:26.154Z,9.70
2022-11-24T01:53:58.879Z,9.69
2022-11-24T01:56:28.819Z,9.64
2022-11-24T01:58:59.660Z,9.62
2022-11-24T02:01:29.295Z,9.67
2022-11-24T02:03:57.108Z,9.63
2022-11-24T02:06:28.218Z,9.71
2022-11-24T02:09:41.383Z,9.70
2022-11-24T02:12:09.375Z,9.64
2022-11-24T02:14:42.309Z,9.71
2022-11-24T02:17:10.957Z,9.68
2022-11-24T02:19:39.309Z,9.74
2022-11-24T02:22:16.090Z,9.73
2022-11-24T02:25:39.708Z,9.71
2022-11-24T02:28:13.521Z,9.81
2022-11-24T02:30:40.423Z,9.79
2022-11-24T02:33:06.988Z,9.74
2022-11-24T02:35:33.735Z,9.76
2022-11-24T02:38:00.221Z,9.80
2022-11-24T02:40:30.090Z,9.84
2022-11-24T02:43:04.192Z,9.69
2022-11-24T02:45:31.777Z,9.81
2022-11-24T02:47:58.637Z,9.73
2022-11-24T02:50:25.455Z,9.71
2022-11-24T02:52:52.243Z,9.72
2022-11-24T02:55:18.849Z,9.69
2022-11-24T02:57:45.357Z,9.66
2022-11-24T03:00:12.293Z,9.65
2022-11-24T03:02:39.014Z,9.69
2022-11-24T03:05:06.189Z,9.69
2022-11-24T03:07:32.651Z,9.61
2022-11-24T03:09:59.312Z,9.62
2022-11-24T03:12:25.857Z,9.63
2022-11-24T03:14:52.335Z,9.66
2022-11-24T03:17:18.796Z,9.61
2022-11-24T03:19:45.395Z,9.59
2022-11-24T03:22:13.248Z,9.57
2022-11-24T03:24:39.722Z,9.64
2022-11-24T03:27:06.180Z,9.60
2022-11-24T03:29:32.739Z,9.61
2022-11-24T03:31:59.448Z,9.61
2022-11-24T03:34:26.143Z,9.55
2022-11-24T03:36:52.627Z,9.61
2022-11-24T03:39:19.049Z,9.59
2022-11-24T03:41:45.523Z,9.60
2022-11-24T03:44:11.968Z,9.60
2022-11-24T03:46:38.907Z,9.55
2022-11-24T03:49:05.599Z,9.62
2022-11-24T03:51:32.036Z,9.65
2022-11-24T03:53:58.463Z,9.59
2022-11-24T03:56:24.893Z,9.57
2022-11-24T03:58:51.698Z,9.61
2022-11-24T04:01:18.447Z,9.59
2022-11-24T04:03:44.898Z,9.56
2022-11-24T04:06:11.496Z,9.48
2022-11-24T04:08:38.134Z,9.60
2022-11-24T04:11:04.770Z,9.58
2022-11-24T04:13:31.255Z,9.51
2022-11-24T04:15:57.678Z,9.51
2022-11-24T04:18:24.206Z,9.60
2022-11-24T04:20:51.510Z,9.48
2022-11-24T04:23:18.545Z,9.48
2022-11-24T04:25:44.972Z,9.52
2022-11-24T04:28:11.521Z,9.51
2022-11-24T04:30:38.558Z,9.50
2022-11-24T04:33:05.012Z,9.46
2022-11-24T04:35:31.404Z,9.45
2022-11-24T04:38:02.767Z,9.45
2022-11-24T04:40:29.295Z,9.38
2022-11-24T04:42:56.257Z,9.40
2022-11-24T04:45:23.478Z,9.47
2022-11-24T04:47:50.130Z,9.48
2022-11-24T04:50:17.111Z,9.45
2022-11-24T04:52:43.671Z,9.44
2022-11-24T04:55:10.699Z,9.47
2022-11-24T04:57:37.370Z,9.45
2022-11-24T05:00:04.216Z,9.39
2022-11-24T05:02:30.808Z,9.38
2022-11-24T05:04:57.281Z,9.43
2022-11-24T05:07:23.743Z,9.41
2022-11-24T05:10:10.999Z,9.39
2022-11-24T05:12:37.472Z,9.37
2022-11-24T05:15:05.364Z,9.44
2022-11-24T05:17:34.611Z,9.38
2022-11-24T05:20:05.598Z,9.35
2022-11-24T05:22:32.167Z,9.40
2022-11-24T05:24:58.694Z,9.38
2022-11-24T05:27:25.134Z,9.38
2022-11-24T05:29:51.617Z,9.36
2022-11-24T05:32:18.244Z,9.36
2022-11-24T05:34:44.709Z,9.36
2022-11-24T05:37:11.149Z,9.38
2022-11-24T05:39:37.682Z,9.31
2022-11-24T05:42:24.654Z,9.33
2022-11-24T05:44:51.409Z,9.31
2022-11-24T05:47:18.468Z,9.32
2022-11-24T05:49:45.030Z,9.31
2022-11-24T05:52:12.191Z,9.36
2022-11-24T05:54:38.742Z,9.42
2022-11-24T05:57:05.602Z,9.44
2022-11-24T05:59:32.169Z,9.39
2022-11-24T06:01:58.730Z,9.44
2022-11-24T06:04:25.323Z,9.44
2022-11-24T06:06:51.863Z,9.40
2022-11-24T06:09:18.298Z,9.43
2022-11-24T06:11:44.738Z,9.45
2022-11-24T06:14:11.748Z,9.49
2022-11-24T06:16:38.541Z,9.46
2022-11-24T06:19:05.021Z,9.54
2022-11-24T06:21:31.837Z,9.46
2022-11-24T06:23:58.547Z,9.46
2022-11-24T06:26:24.950Z,9.48
2022-11-24T06:28:51.397Z,9.50
2022-11-24T06:31:17.838Z,9.48
2022-11-24T06:33:44.699Z,9.41
2022-11-24T06:36:14.069Z,9.44
2022-11-24T06:38:40.556Z,9.44
2022-11-24T06:41:09.802Z,9.43
2022-11-24T06:43:36.604Z,9.45
2022-11-24T06:46:03.499Z,9.42
2022-11-24T06:48:30.559Z,9.39
2022-11-24T06:51:01.323Z,9.44
2022-11-24T06:53:31.043Z,9.47
2022-11-24T06:56:00.030Z,9.50
2022-11-24T06:58:26.740Z,9.50
2022-11-24T07:00:53.459Z,9.42
2022-11-24T07:03:20.210Z,9.48
2022-11-24T07:05:46.765Z,9.50
2022-11-24T07:08:17.787Z,9.48
2022-11-24T07:10:44.960Z,9.49
2022-11-24T07:13:11.434Z,9.52
2022-11-24T07:15:37.855Z,9.51
2022-11-24T07:18:04.729Z,9.47
2022-11-24T07:20:31.398Z,9.43
2022-11-24T07:22:58.638Z,9.45
2022-11-24T07:25:25.813Z,9.42
2022-11-24T07:27:57.050Z,9.46
2022-11-24T07:30:24.249Z,9.50
2022-11-24T07:32:51.169Z,9.47
2022-11-24T07:35:17.928Z,9.42
2022-11-24T07:37:44.479Z,9.44
2022-11-24T07:40:11.482Z,9.40
2022-11-24T07:42:37.863Z,9.47
2022-11-24T07:45:04.648Z,9.44
2022-11-24T07:47:31.168Z,9.45
2022-11-24T07:49:57.605Z,9.51
2022-11-24T07:52:26.592Z,9.48
2022-11-24T07:54:53.170Z,9.44
2022-11-24T07:57:19.615Z,9.44
2022-11-24T07:59:46.429Z,9.47
2022-11-24T08:02:13.523Z,9.40
2022-11-24T08:04:40.071Z,9.40
2022-11-24T08:07:06.792Z,9.39
2022-11-24T08:09:33.252Z,9.36
2022-11-24T08:11:59.743Z,9.36
2022-11-24T08:14:26.391Z,9.31
2022-11-24T08:16:53.034Z,9.26
2022-11-24T08:19:19.732Z,9.32
2022-11-24T08:21:46.184Z,9.27
2022-11-24T08:24:15.139Z,9.25
2022-11-24T08:26:42.287Z,9.31
2022-11-24T08:29:09.603Z,9.30
2022-11-24T08:31:38.746Z,9.25
2022-11-24T08:34:06.069Z,9.26
2022-11-24T08:36:33.368Z,9.25
2022-11-24T08:39:00.820Z,9.33
2022-11-24T08:41:28.406Z,9.43
2022-11-24T08:43:55.451Z,9.53
2022-11-24T08:46:22.175Z,9.62
2022-11-24T08:48:50.309Z,9.69
2022-11-24T08:51:19.411Z,9.72
2022-11-24T08:53:46.055Z,9.93
2022-11-24T08:56:13.328Z,10.03
2022-11-24T08:58:40.776Z,10.13
2022-11-24T09:01:15.780Z,10.19
2022-11-24T09:03:49.932Z,10.21
2022-11-24T09:06:23.462Z,10.16
2022-11-24T09:08:50.035Z,10.26
2022-11-24T09:11:17.540Z,10.28
2022-11-24T09:13:44.563Z,10.26
2022-11-24T09:16:17.499Z,10.35
2022-11-24T09:18:44.382Z,10.28
2022-11-24T09:21:13.540Z,10.33
2022-11-24T09:23:41.082Z,10.38
2022-11-24T09:26:11.198Z,10.38
2022-11-24T09:28:38.321Z,10.50
2022-11-24T09:31:07.951Z,10.60
2022-11-24T09:33:35.037Z,10.64
2022-11-24T09:36:02.055Z,10.70
2022-11-24T09:38:28.688Z,10.78
2022-11-24T09:40:55.904Z,10.91
2022-11-24T09:43:39.507Z,11.04
2022-11-24T09:46:12.761Z,11.22
2022-11-24T09:48:42.412Z,11.36
2022-11-24T09:51:14.569Z,11.53
2022-11-24T09:53:49.761Z,11.71
2022-11-24T09:56:21.967Z,11.73
2022-11-24T09:58:54.326Z,11.93
2022-11-24T10:01:30.948Z,12.20
2022-11-24T10:04:04.307Z,12.24
2022-11-24T10:07:21.119Z,12.39
2022-11-24T10:10:14.054Z,12.66
2022-11-24T10:13:05.658Z,12.75
2022-11-24T10:16:17.894Z,12.88
2022-11-24T10:19:07.687Z,13.04
2022-11-24T10:21:51.924Z,13.30
2022-11-24T10:25:17.150Z,13.29
2022-11-24T10:27:47.413Z,13.37
2022-11-24T10:30:20.373Z,13.54
2022-11-24T10:32:49.729Z,13.66
2022-11-24T10:35:23.194Z,13.73
2022-11-24T10:37:56.500Z,13.66
2022-11-24T10:40:56.543Z,13.70
2022-11-24T10:43:26.840Z,13.77
2022-11-24T10:45:55.047Z,13.69
2022-11-24T10:48:25.632Z,13.78
2022-11-24T10:51:06.296Z,13.95
2022-11-24T10:53:35.385Z,14.09
2022-11-24T10:56:05.268Z,14.18
2022-11-24T10:58:38.435Z,14.35
2022-11-24T11:01:14.161Z,14.44
2022-11-24T11:03:50.984Z,14.58
2022-11-24T11:06:31.336Z,14.78
2022-11-24T11:09:07.141Z,14.97
2022-11-24T11:11:34.911Z,15.23
2022-11-24T11:14:06.459Z,15.33
2022-11-24T11:16:34.730Z,15.43
2022-11-24T11:19:15.739Z,15.38
2022-11-24T11:22:13.852Z,15.52
2022-11-24T11:24:42.454Z,15.53
2022-11-24T11:27:24.688Z,15.63
2022-11-24T11:35:38.789Z,15.86
2022-11-24T11:38:06.836Z,15.89
2022-11-24T11:40:34.786Z,16.02
2022-11-24T11:43:34.392Z,16.30
2022-11-24T11:46:09.697Z,16.26
2022-11-24T11:48:43.630Z,16.32
2022-11-24T11:51:25.901Z,16.20
2022-11-24T11:54:04.483Z,16.19
2022-11-24T11:56:35.157Z,16.08
2022-11-24T11:59:59.320Z,16.03
2022-11-24T12:02:53.647Z,16.15
2022-11-24T12:05:57.920Z,16.32
2022-11-24T12:09:18.075Z,16.21
2022-11-24T12:11:45.334Z,16.05
2022-11-24T12:14:17.729Z,15.84
2022-11-24T12:16:51.236Z,15.66
2022-11-24T12:19:56.408Z,15.69
2022-11-24T12:22:43.824Z,15.72
2022-11-24T12:25:34.516Z,15.92
2022-11-24T12:28:27.141Z,16.10
2022-11-24T12:31:08.857Z,16.19
2022-11-24T12:34:01.110Z,15.90
2022-11-24T12:36:47.779Z,15.88
2022-11-24T12:39:34.313Z,16.05
2022-11-24T12:42:17.396Z,16.12
2022-11-24T12:45:02.517Z,16.24
2022-11-24T12:48:06.782Z,16.12
2022-11-24T12:50:38.605Z,16.20
2022-11-24T12:53:13.567Z,16.20
2022-11-24T12:55:42.511Z,16.28
2022-11-24T12:58:39.055Z,16.28
2022-11-24T13:01:23.275Z,16.41
2022-11-24T13:04:07.662Z,16.13
2022-11-24T13:07:02.042Z,16.27
2022-11-24T13:09:28.457Z,16.21
2022-11-24T13:12:15.194Z,15.84
2022-11-24T13:14:47.964Z,15.95
2022-11-24T13:17:40.593Z,16.00
2022-11-24T13:20:25.219Z,15.84
2022-11-24T13:22:53.991Z,15.86
2022-11-24T13:25:24.314Z,15.93
2022-11-24T13:27:57.467Z,15.93
2022-11-24T13:30:35.937Z,16.00
2022-11-24T13:33:27.300Z,16.21
2022-11-24T13:36:03.054Z,16.13
2022-11-24T13:38:44.842Z,16.00
2022-11-24T13:41:31.197Z,15.94
2022-11-24T13:44:24.465Z,15.90
2022-11-24T13:47:05.567Z,15.90
2022-11-24T13:49:46.456Z,15.91
2022-11-24T13:52:44.468Z,15.92
2022-11-24T13:55:13.870Z,15.88
2022-11-24T13:57:46.373Z,15.91
2022-11-24T14:00:20.448Z,15.79
2022-11-24T14:02:47.384Z,15.77
2022-11-24T14:05:18.949Z,15.75
2022-11-24T14:07:48.586Z,15.83
2022-11-24T14:10:18.695Z,15.66
2022-11-24T14:12:45.126Z,15.58
2022-11-24T14:15:22.460Z,15.44
2022-11-24T14:17:48.881Z,15.07
2022-11-24T14:20:26.565Z,15.07
2022-11-24T14:22:53.688Z,14.97
2022-11-24T14:25:30.136Z,15.05
2022-11-24T14:27:56.813Z,15.00
2022-11-24T14:30:24.796Z,14.86
2022-11-24T14:33:02.208Z,14.70
2022-11-24T14:35:31.257Z,14.65
2022-11-24T14:37:59.004Z,14.57
2022-11-24T14:40:37.749Z,14.55
2022-11-24T14:43:13.203Z,14.55
2022-11-24T14:45:48.566Z,14.48
2022-11-24T14:48:17.610Z,14.32
2022-11-24T14:50:44.652Z,14.13
2022-11-24T14:53:16.325Z,14.03
2022-11-24T14:55:42.731Z,13.89
2022-11-24T14:58:32.268Z,13.82
2022-11-24T15:01:27.450Z,13.72
2022-11-24T15:04:46.277Z,13.61
2022-11-24T15:07:29.191Z,13.43
2022-11-24T15:10:04.272Z,13.34
2022-11-24T15:12:39.407Z,13.26
2022-11-24T15:15:15.235Z,13.14
2022-11-24T15:17:50.847Z,13.11
2022-11-24T15:20:42.228Z,13.05
2022-11-24T15:23:25.271Z,13.02
2022-11-24T15:25:55.046Z,12.93
2022-11-24T15:28:28.057Z,12.78
2022-11-24T15:30:56.824Z,12.69
2022-11-24T15:33:23.541Z,12.61
2022-11-24T15:35:50.204Z,12.55
2022-11-24T15:38:17.012Z,12.50
2022-11-24T15:40:45.644Z,12.41
2022-11-24T15:43:31.267Z,12.28
2022-11-24T15:45:58.895Z,12.24
2022-11-24T15:48:25.715Z,12.20
2022-11-24T15:50:52.944Z,12.09
2022-11-24T15:53:25.727Z,12.03
2022-11-24T15:55:52.724Z,11.98
2022-11-24T15:58:19.387Z,11.87
2022-11-24T16:00:46.385Z,11.78
2022-11-24T16:03:45.076Z,11.65
2022-11-24T16:05:59.389Z,11.58
2022-11-24T16:08:25.764Z,11.47
2022-11-24T16:10:52.199Z,11.35
2022-11-24T16:13:19.089Z,11.42
2022-11-24T16:15:47.711Z,11.33
2022-11-24T16:18:14.089Z,11.26
2022-11-24T16:20:40.641Z,11.23
2022-11-24T16:23:07.195Z,11.17
2022-11-24T16:25:33.792Z,11.01
2022-11-24T16:28:00.239Z,10.89
2022-11-24T16:30:26.638Z,10.88
2022-11-24T16:32:53.179Z,10.88
2022-11-24T16:35:20.079Z,10.82
2022-11-24T16:37:46.631Z,10.66
2022-11-24T16:40:13.285Z,10.76
2022-11-24T16:42:39.794Z,10.68
2022-11-24T16:45:06.808Z,10.71
2022-11-24T16:47:38.915Z,10.69
2022-11-24T16:50:06.698Z,10.64
2022-11-24T16:52:33.085Z,10.62
2022-11-24T16:55:00.152Z,10.55
2022-11-24T16:57:26.596Z,10.53
2022-11-24T16:59:53.021Z,10.52
2022-11-24T17:02:19.494Z,10.34
2022-11-24T17:04:45.971Z,10.44
2022-11-24T17:07:13.814Z,10.38
2022-11-24T17:09:40.937Z,10.35
2022-11-24T17:12:07.692Z,10.33
2022-11-24T17:14:34.402Z,10.30
2022-11-24T17:17:01.180Z,10.29
2022-11-24T17:19:28.116Z,10.30
2022-11-24T17:21:54.646Z,10.25
2022-11-24T17:24:21.479Z,10.20
2022-11-24T17:26:50.223Z,10.13
2022-11-24T17:29:17.086Z,10.17
2022-11-24T17:31:43.533Z,10.18
2022-11-24T17:34:11.965Z,10.17
2022-11-24T17:36:39.665Z,10.04
2022-11-24T17:39:07.172Z,10.04
2022-11-24T17:41:34.146Z,10.01
2022-11-24T17:44:00.614Z,10.00
2022-11-24T17:46:28.590Z,10.00
2022-11-24T17:48:55.661Z,9.96
2022-11-24T17:51:24.070Z,9.87
2022-11-24T17:53:52.193Z,9.90
2022-11-24T17:56:23.869Z,9.85
2022-11-24T17:58:54.951Z,9.84
2022-11-24T18:01:21.968Z,9.84
2022-11-24T18:03:53.174Z,9.83
2022-11-24T18:06:27.815Z,9.85
2022-11-24T18:08:56.707Z,9.82
2022-11-24T18:11:30.942Z,9.80
2022-11-24T18:14:00.956Z,9.74
2022-11-24T18:16:29.877Z,9.81
2022-11-24T18:19:14.334Z,9.78
2022-11-24T18:21:42.164Z,9.79
2022-11-24T18:24:10.456Z,9.75
2022-11-24T18:26:38.992Z,9.71
2022-11-24T18:29:05.748Z,9.73
2022-11-24T18:31:34.166Z,9.73
2022-11-24T18:34:00.783Z,9.74
2022-11-24T18:36:30.624Z,9.72
2022-11-24T18:39:00.698Z,9.67
2022-11-24T18:41:27.103Z,9.62
2022-11-24T18:43:53.492Z,9.60
2022-11-24T18:46:21.008Z,9.53
2022-11-24T18:48:47.587Z,9.56
2022-11-24T18:51:18.495Z,9.56
2022-11-24T18:53:46.844Z,9.46
2022-11-24T18:56:19.051Z,9.49
2022-11-24T18:58:53.412Z,9.46
2022-11-24T19:01:22.990Z,9.48
2022-11-24T19:03:55.078Z,9.37
2022-11-24T19:06:26.467Z,9.38
2022-11-24T19:08:54.255Z,9.40
2022-11-24T19:11:23.458Z,9.34
2022-11-24T19:13:50.322Z,9.33
2022-11-24T19:16:18.825Z,9.32
2022-11-24T19:18:51.833Z,9.37
2022-11-24T19:21:20.327Z,9.36
2022-11-24T19:23:46.779Z,9.28
2022-11-24T19:26:13.226Z,9.39
2022-11-24T19:28:39.688Z,9.34
2022-11-24T19:31:08.785Z,9.31
2022-11-24T19:33:35.913Z,9.37
2022-11-24T19:36:13.324Z,9.38
2022-11-24T19:38:41.042Z,9.34
2022-11-24T19:41:08.866Z,9.36
2022-11-24T19:43:35.577Z,9.34
2022-11-24T19:46:07.090Z,9.26
2022-11-24T19:48:35.406Z,9.30
2022-11-24T19:51:03.486Z,9.22
2022-11-24T19:53:30.568Z,9.17
2022-11-24T19:56:05.445Z,9.28
2022-11-24T19:58:32.028Z,9.23
2022-11-24T20:01:08.580Z,9.25
2022-11-24T20:03:35.689Z,9.27
2022-11-24T20:06:02.700Z,9.00
2022-11-24T20:08:33.984Z,9.15
2022-11-24T20:11:08.467Z,9.16
2022-11-24T20:13:36.579Z,9.12
2022-11-24T20:16:10.101Z,9.22
2022-11-24T20:18:43.732Z,9.24
2022-11-24T20:21:18.036Z,9.17
2022-11-24T20:23:46.438Z,9.23
2022-11-24T20:26:14.363Z,9.23
2022-11-24T20:28:41.662Z,9.23
2022-11-24T20:31:11.760Z,9.20
2022-11-24T20:33:39.376Z,9.18
2022-11-24T20:36:08.782Z,9.18
2022-11-24T20:38:35.585Z,8.97
2022-11-24T20:41:08.774Z,9.06
2022-11-24T20:43:35.908Z,9.17
2022-11-24T20:46:04.095Z,9.10
2022-11-24T20:48:30.877Z,9.15
2022-11-24T20:51:09.597Z,9.04
2022-11-24T20:53:36.949Z,9.02
2022-11-24T20:56:06.125Z,9.11
2022-11-24T20:58:34.567Z,9.07
2022-11-24T21:01:05.723Z,9.07
2022-11-24T21:03:32.783Z,9.08
2022-11-24T21:05:59.764Z,9.02
2022-11-24T21:08:35.935Z,8.89
2022-11-24T21:11:04.091Z,8.93
2022-11-24T21:13:38.209Z,8.95
2022-11-24T21:16:16.687Z,8.94
2022-11-24T21:18:44.858Z,9.00
2022-11-24T21:21:12.409Z,8.93
2022-11-24T21:23:39.029Z,8.98
2022-11-24T21:26:12.993Z,8.94
2022-11-24T21:28:42.883Z,8.85
2022-11-24T21:31:14.862Z,8.96
2022-11-24T21:33:44.784Z,8.83
2022-11-24T21:36:12.866Z,8.92
2022-11-24T21:38:39.311Z,8.97
2022-11-24T21:41:08.244Z,8.97
2022-11-24T21:43:35.299Z,8.99
2022-11-24T21:46:03.001Z,9.00
2022-11-24T21:48:31.479Z,8.98
2022-11-24T21:50:59.631Z,8.99
2022-11-24T21:53:33.332Z,9.02
2022-11-24T21:56:02.606Z,8.92
2022-11-24T21:58:29.742Z,9.02
2022-11-24T22:01:04.961Z,9.04
2022-11-24T22:03:31.916Z,9.10
2022-11-24T22:06:00.439Z,9.11
2022-11-24T22:08:27.685Z,9.10
2022-11-24T22:10:59.568Z,9.14
2022-11-24T22:13:26.009Z,9.10
2022-11-24T22:16:02.387Z,8.98
2022-11-24T22:18:33.561Z,9.07
2022-11-24T22:21:04.644Z,9.14
2022-11-24T22:23:32.250Z,9.15
2022-11-24T22:26:06.614Z,9.07
2022-11-24T22:28:35.324Z,9.08
2022-11-24T22:31:17.528Z,9.15
2022-11-24T22:33:44.535Z,9.15
2022-11-24T22:36:12.819Z,9.22
2022-11-24T22:38:39.636Z,9.27
2022-11-24T22:41:08.700Z,9.31
2022-11-24T22:43:36.838Z,9.22
2022-11-24T22:46:25.133Z,9.31
2022-11-24T22:48:52.926Z,9.21
2022-11-24T22:51:22.206Z,9.25
2022-11-24T22:53:50.596Z,9.28
2022-11-24T22:56:17.650Z,9.31
2022-11-24T22:58:44.409Z,9.37
2022-11-24T23:01:24.994Z,9.39
2022-11-24T23:03:54.288Z,9.40
2022-11-24T23:06:22.811Z,9.35
2022-11-24T23:08:52.147Z,9.39
2022-11-24T23:11:29.139Z,9.40
2022-11-24T23:14:03.119Z,9.38
2022-11-24T23:16:31.559Z,9.46
2022-11-24T23:18:59.725Z,9.46
2022-11-24T23:21:31.917Z,9.40
2022-11-24T23:24:00.213Z,9.52
2022-11-24T23:26:30.097Z,9.53
2022-11-24T23:28:56.852Z,9.43
2022-11-24T23:31:28.501Z,9.57
2022-11-24T23:33:57.421Z,9.50
2022-11-24T23:36:25.133Z,9.59
2022-11-24T23:38:56.738Z,9.62
2022-11-24T23:41:26.749Z,9.63
2022-11-24T23:43:53.319Z,9.62
2022-11-24T23:46:22.162Z,9.57
2022-11-24T23:48:51.449Z,9.66
2022-11-24T23:51:22.040Z,9.69
2022-11-24T23:53:49.983Z,9.70
2022-11-24T23:56:23.762Z,9.70
2022-11-24T23:58:52.204Z,9.66
